createdAt,value
2019-03-20T05:01:03.587Z,5.49
2019-03-20T05:02:03.443Z,5.49
2019-03-20T05:03:56.106Z,5.59
2019-03-20T05:04:55.994Z,5.55
2019-03-20T05:06:58.344Z,5.60
2019-03-20T05:07:48.537Z,5.52
2019-03-20T05:09:41.191Z,5.57
2019-03-20T05:10:41.082Z,5.59
2019-03-20T05:12:33.765Z,5.52
2019-03-20T05:13:33.626Z,5.45
2019-03-20T05:15:26.287Z,5.49
2019-03-20T05:16:26.177Z,5.57
2019-03-20T05:18:18.861Z,5.57
2019-03-20T05:19:18.717Z,5.54
2019-03-20T05:21:11.375Z,5.54
2019-03-20T05:22:11.266Z,5.48
2019-03-20T05:24:03.936Z,5.52
2019-03-20T05:25:03.820Z,5.55
2019-03-20T05:26:56.470Z,5.48
2019-03-20T05:27:56.355Z,5.48
2019-03-20T05:29:49.029Z,5.49
2019-03-20T05:30:48.905Z,5.51
2019-03-20T05:32:41.564Z,5.57
2019-03-20T05:33:41.450Z,5.54
2019-03-20T05:35:34.134Z,5.54
2019-03-20T05:36:33.997Z,5.60
2019-03-20T05:38:26.677Z,5.54
2019-03-20T05:39:26.543Z,5.55
2019-03-20T05:41:19.383Z,5.59
2019-03-20T05:42:19.085Z,5.59
2019-03-20T05:44:12.742Z,5.60
2019-03-20T05:45:12.623Z,5.66
2019-03-20T05:47:05.299Z,5.67
2019-03-20T05:48:05.166Z,5.62
2019-03-20T05:49:57.828Z,5.70
2019-03-20T05:50:57.708Z,5.67
2019-03-20T05:52:50.385Z,5.69
2019-03-20T05:53:50.253Z,5.73
2019-03-20T05:55:42.917Z,5.66
2019-03-20T05:56:42.797Z,5.77
2019-03-20T05:58:35.474Z,5.72
2019-03-20T05:59:35.341Z,5.75
2019-03-20T06:01:27.998Z,5.81
2019-03-20T06:02:27.884Z,5.88
2019-03-20T06:04:20.572Z,5.84
2019-03-20T06:05:20.430Z,5.96
2019-03-20T06:07:21.032Z,6.03
2019-03-20T06:08:12.976Z,6.06
2019-03-20T06:10:06.367Z,6.15
2019-03-20T06:11:06.048Z,6.20
2019-03-20T06:12:58.884Z,6.28
2019-03-20T06:13:58.856Z,6.40
2019-03-20T06:15:51.284Z,6.44
2019-03-20T06:16:51.150Z,6.54
2019-03-20T06:18:43.809Z,6.58
2019-03-20T06:19:43.702Z,6.67
2019-03-20T06:21:36.379Z,6.67
2019-03-20T06:22:36.252Z,6.65
2019-03-20T06:24:28.923Z,6.78
2019-03-20T06:25:28.801Z,6.85
2019-03-20T06:27:21.524Z,6.94
2019-03-20T06:28:21.354Z,6.90
2019-03-20T06:30:14.026Z,6.98
2019-03-20T06:31:13.908Z,6.93
2019-03-20T06:33:06.593Z,7.05
2019-03-20T06:34:06.478Z,7.18
2019-03-20T06:35:59.129Z,7.26
2019-03-20T06:36:59.010Z,7.27
2019-03-20T06:38:51.700Z,7.37
2019-03-20T06:39:53.321Z,7.44
2019-03-20T06:41:44.221Z,7.41
2019-03-20T06:42:44.116Z,7.44
2019-03-20T06:44:36.784Z,7.40
2019-03-20T06:45:36.654Z,7.31
2019-03-20T06:47:29.313Z,7.34
2019-03-20T06:48:29.204Z,7.39
2019-03-20T06:50:21.879Z,7.41
2019-03-20T06:51:21.750Z,7.36
2019-03-20T06:53:14.417Z,7.36
2019-03-20T06:54:14.305Z,7.48
2019-03-20T06:56:06.983Z,7.31
2019-03-20T06:57:06.868Z,7.34
2019-03-20T06:58:59.512Z,7.52
2019-03-20T06:59:59.418Z,7.45
2019-03-20T07:01:52.086Z,7.63
2019-03-20T07:02:51.945Z,7.64
2019-03-20T07:04:44.604Z,7.88
2019-03-20T07:05:44.492Z,7.91
2019-03-20T07:07:43.920Z,8.07
2019-03-20T07:08:37.036Z,8.31
2019-03-20T07:10:29.694Z,8.34
2019-03-20T07:11:29.582Z,8.35
2019-03-20T07:13:22.257Z,8.32
2019-03-20T07:14:22.186Z,8.22
2019-03-20T07:16:14.795Z,8.04
2019-03-20T07:17:14.683Z,8.07
2019-03-20T07:19:07.359Z,7.93
2019-03-20T07:20:07.228Z,7.93
2019-03-20T07:21:59.887Z,7.77
2019-03-20T07:22:59.778Z,7.75
2019-03-20T07:24:52.460Z,7.89
2019-03-20T07:25:52.326Z,8.07
2019-03-20T07:27:44.997Z,8.40
2019-03-20T07:28:44.885Z,8.67
2019-03-20T07:30:37.566Z,9.04
2019-03-20T07:31:37.438Z,9.05
2019-03-20T07:33:30.104Z,9.24
2019-03-20T07:34:29.985Z,9.34
2019-03-20T07:36:22.667Z,9.34
2019-03-20T07:37:22.543Z,9.41
2019-03-20T07:39:15.224Z,9.52
2019-03-20T07:40:15.109Z,9.62
2019-03-20T07:42:07.798Z,9.74
2019-03-20T07:43:09.141Z,9.52
2019-03-20T07:45:00.343Z,9.44
2019-03-20T07:46:00.223Z,9.27
2019-03-20T07:47:52.911Z,9.09
2019-03-20T07:48:52.783Z,9.05
2019-03-20T07:50:45.448Z,9.05
2019-03-20T07:51:45.336Z,9.11
2019-03-20T07:53:38.019Z,9.32
2019-03-20T07:54:37.888Z,9.52
2019-03-20T07:56:30.551Z,9.84
2019-03-20T07:57:30.435Z,9.92
2019-03-20T07:59:23.116Z,10.17
2019-03-20T08:00:23.232Z,10.29
2019-03-20T08:02:15.657Z,10.38
2019-03-20T08:03:15.540Z,10.44
2019-03-20T08:05:08.230Z,10.72
2019-03-20T08:06:08.103Z,10.66
2019-03-20T08:08:07.061Z,10.97
2019-03-20T08:09:00.644Z,11.03
2019-03-20T08:10:53.331Z,11.10
2019-03-20T08:11:53.207Z,11.06
2019-03-20T08:13:45.874Z,11.06
2019-03-20T08:14:45.770Z,10.97
2019-03-20T08:16:38.453Z,11.02
2019-03-20T08:17:38.329Z,10.98
2019-03-20T08:19:30.991Z,10.94
2019-03-20T08:20:30.881Z,10.95
2019-03-20T08:22:23.563Z,11.06
2019-03-20T08:23:23.456Z,11.06
2019-03-20T08:25:16.107Z,11.23
2019-03-20T08:26:16.001Z,11.45
2019-03-20T08:28:08.684Z,11.39
2019-03-20T08:29:08.564Z,11.45
2019-03-20T08:31:01.279Z,11.33
2019-03-20T08:32:01.126Z,11.41
2019-03-20T08:33:53.811Z,11.42
2019-03-20T08:34:53.689Z,11.30
2019-03-20T08:36:46.360Z,11.15
2019-03-20T08:37:46.245Z,11.42
2019-03-20T08:39:38.930Z,11.78
2019-03-20T08:40:38.807Z,11.48
2019-03-20T08:42:31.478Z,11.68
2019-03-20T08:43:31.367Z,11.84
2019-03-20T08:45:24.057Z,11.81
2019-03-20T08:46:23.937Z,11.46
2019-03-20T08:48:16.606Z,11.52
2019-03-20T08:49:16.511Z,11.28
2019-03-20T08:51:09.185Z,11.38
2019-03-20T08:52:09.056Z,11.31
2019-03-20T08:54:01.730Z,11.51
2019-03-20T08:55:01.621Z,11.60
2019-03-20T08:56:54.300Z,11.75
2019-03-20T08:57:54.181Z,11.88
2019-03-20T08:59:46.877Z,11.98
2019-03-20T09:00:46.747Z,12.13
2019-03-20T09:02:39.435Z,11.88
2019-03-20T09:03:39.305Z,11.70
2019-03-20T09:05:31.994Z,11.30
2019-03-20T09:06:31.869Z,11.39
2019-03-20T09:08:29.440Z,11.52
2019-03-20T09:09:24.440Z,11.70
2019-03-20T09:11:17.123Z,11.88
2019-03-20T09:12:17.002Z,11.86
2019-03-20T09:14:09.666Z,12.01
2019-03-20T09:15:09.565Z,12.07
2019-03-20T09:17:02.244Z,12.28
2019-03-20T09:18:02.119Z,12.34
2019-03-20T09:19:54.787Z,12.48
2019-03-20T09:20:54.677Z,12.51
2019-03-20T09:22:47.371Z,12.70
2019-03-20T09:23:47.247Z,12.65
2019-03-20T09:25:39.929Z,12.70
2019-03-20T09:26:39.811Z,12.80
2019-03-20T09:28:33.006Z,12.76
2019-03-20T09:29:36.232Z,12.59
2019-03-20T09:31:25.552Z,12.48
2019-03-20T09:32:25.444Z,12.59
2019-03-20T09:34:18.131Z,12.45
2019-03-20T09:35:18.018Z,12.58
2019-03-20T09:37:10.698Z,12.65
2019-03-20T09:38:10.574Z,12.66
2019-03-20T09:40:03.245Z,12.95
2019-03-20T09:41:03.141Z,13.07
2019-03-20T09:42:55.833Z,13.13
2019-03-20T09:43:55.704Z,13.32
2019-03-20T09:45:48.379Z,13.40
2019-03-20T09:46:48.274Z,13.48
2019-03-20T09:48:40.955Z,13.42
2019-03-20T09:49:40.834Z,13.54
2019-03-20T09:51:33.508Z,13.51
2019-03-20T09:52:33.406Z,13.53
2019-03-20T09:54:26.099Z,13.57
2019-03-20T09:55:25.974Z,13.58
2019-03-20T09:57:18.690Z,13.65
2019-03-20T09:58:18.536Z,13.84
2019-03-20T10:00:11.224Z,13.76
2019-03-20T10:01:11.100Z,13.76
2019-03-20T10:03:03.775Z,13.70
2019-03-20T10:04:03.671Z,13.78
2019-03-20T10:05:56.370Z,13.84
2019-03-20T10:06:56.238Z,13.94
2019-03-20T10:08:54.116Z,13.97
2019-03-20T10:09:48.816Z,14.05
2019-03-20T10:11:41.514Z,14.27
2019-03-20T10:12:41.381Z,14.19
2019-03-20T10:14:34.060Z,14.06
2019-03-20T10:15:33.948Z,14.15
2019-03-20T10:17:26.648Z,14.20
2019-03-20T10:18:26.522Z,13.81
2019-03-20T10:20:19.196Z,13.99
2019-03-20T10:21:19.091Z,14.03
2019-03-20T10:23:11.789Z,13.94
2019-03-20T10:24:11.656Z,13.81
2019-03-20T10:26:04.354Z,14.02
2019-03-20T10:27:04.233Z,14.02
2019-03-20T10:28:56.917Z,14.11
2019-03-20T10:29:56.796Z,14.20
2019-03-20T10:31:49.470Z,14.49
2019-03-20T10:32:49.369Z,14.45
2019-03-20T10:34:42.072Z,14.31
2019-03-20T10:35:49.959Z,14.12
2019-03-20T10:37:34.614Z,14.05
2019-03-20T10:38:34.514Z,14.06
2019-03-20T10:40:27.217Z,14.28
2019-03-20T10:41:27.082Z,14.38
2019-03-20T10:43:19.753Z,14.39
2019-03-20T10:44:19.644Z,14.46
2019-03-20T10:46:12.348Z,14.64
2019-03-20T10:47:12.219Z,14.86
2019-03-20T10:49:04.892Z,14.98
2019-03-20T10:50:04.787Z,14.83
2019-03-20T10:51:57.472Z,14.44
2019-03-20T10:52:57.354Z,14.51
2019-03-20T10:54:50.029Z,14.69
2019-03-20T10:55:51.907Z,14.60
2019-03-20T10:57:42.612Z,14.69
2019-03-20T10:58:42.489Z,14.87
2019-03-20T11:00:35.167Z,14.87
2019-03-20T11:01:42.492Z,15.05
2019-03-20T11:03:27.748Z,15.07
2019-03-20T11:04:27.629Z,15.00
2019-03-20T11:06:20.299Z,14.97
2019-03-20T11:07:20.194Z,14.79
2019-03-20T11:09:18.370Z,14.64
2019-03-20T11:10:12.769Z,14.61
2019-03-20T11:12:05.452Z,14.09
2019-03-20T11:13:05.349Z,14.27
2019-03-20T11:14:58.041Z,14.52
2019-03-20T11:15:57.913Z,14.63
2019-03-20T11:17:50.598Z,14.94
2019-03-20T11:18:50.492Z,14.98
2019-03-20T11:20:43.183Z,14.69
2019-03-20T11:21:43.050Z,14.70
2019-03-20T11:23:35.726Z,14.90
2019-03-20T11:24:35.628Z,14.63
2019-03-20T11:26:28.315Z,14.61
2019-03-20T11:27:28.196Z,14.83
2019-03-20T11:29:21.716Z,15.00
2019-03-20T11:30:20.762Z,15.13
2019-03-20T11:32:14.512Z,15.10
2019-03-20T11:33:13.337Z,15.19
2019-03-20T11:35:06.036Z,15.02
2019-03-20T11:36:05.911Z,15.13
2019-03-20T11:37:58.591Z,15.23
2019-03-20T11:38:58.489Z,15.34
2019-03-20T11:40:51.172Z,15.47
2019-03-20T11:41:51.056Z,15.52
2019-03-20T11:43:43.737Z,15.65
2019-03-20T11:44:43.634Z,15.55
2019-03-20T11:46:36.318Z,15.23
2019-03-20T11:47:36.201Z,15.16
2019-03-20T11:49:28.887Z,14.98
2019-03-20T11:50:28.776Z,14.97
2019-03-20T11:52:21.470Z,14.69
2019-03-20T11:53:21.349Z,14.49
2019-03-20T11:55:14.021Z,14.59
2019-03-20T11:56:13.917Z,14.52
2019-03-20T11:58:06.626Z,14.60
2019-03-20T11:59:06.493Z,14.61
2019-03-20T12:00:59.168Z,14.57
2019-03-20T12:01:59.060Z,14.60
2019-03-20T12:03:51.758Z,14.57
2019-03-20T12:04:53.892Z,14.56
2019-03-20T12:06:44.376Z,14.67
2019-03-20T12:07:44.208Z,14.41
2019-03-20T12:09:40.989Z,14.34
2019-03-20T12:10:36.767Z,14.21
2019-03-20T12:12:29.439Z,14.49
2019-03-20T12:13:29.334Z,14.64
2019-03-20T12:15:22.028Z,14.63
2019-03-20T12:16:21.955Z,14.39
2019-03-20T12:18:14.584Z,14.61
2019-03-20T12:19:14.476Z,14.70
2019-03-20T12:21:07.264Z,14.63
2019-03-20T12:22:07.134Z,14.63
2019-03-20T12:23:59.832Z,14.95
2019-03-20T12:24:59.728Z,15.05
2019-03-20T12:26:52.417Z,14.94
2019-03-20T12:27:52.295Z,14.97
2019-03-20T12:29:44.968Z,15.16
2019-03-20T12:30:44.864Z,14.98
2019-03-20T12:32:37.562Z,14.53
2019-03-20T12:33:37.442Z,14.44
2019-03-20T12:35:30.113Z,14.46
2019-03-20T12:36:30.006Z,14.33
2019-03-20T12:38:22.704Z,14.28
2019-03-20T12:39:22.575Z,14.36
2019-03-20T12:41:15.764Z,14.69
2019-03-20T12:42:15.638Z,14.80
2019-03-20T12:44:09.327Z,14.75
2019-03-20T12:45:09.199Z,14.87
2019-03-20T12:47:01.869Z,14.87
2019-03-20T12:48:01.762Z,14.90
2019-03-20T12:49:54.465Z,14.93
2019-03-20T12:50:54.341Z,14.66
2019-03-20T12:52:47.017Z,14.59
2019-03-20T12:53:46.911Z,14.48
2019-03-20T12:55:39.599Z,14.52
2019-03-20T12:56:39.475Z,14.66
2019-03-20T12:58:32.152Z,14.75
2019-03-20T12:59:32.047Z,14.97
2019-03-20T13:01:24.742Z,14.97
2019-03-20T13:02:24.606Z,14.95
2019-03-20T13:04:17.285Z,14.79
2019-03-20T13:05:17.180Z,14.74
2019-03-20T13:07:10.391Z,14.63
2019-03-20T13:08:10.257Z,14.60
2019-03-20T13:10:03.435Z,14.63
2019-03-20T13:11:02.825Z,14.53
2019-03-20T13:12:56.013Z,14.44
2019-03-20T13:13:55.879Z,14.48
2019-03-20T13:15:48.566Z,14.44
2019-03-20T13:16:48.440Z,14.56
2019-03-20T13:18:41.145Z,14.49
2019-03-20T13:19:41.017Z,14.51
2019-03-20T13:21:33.682Z,14.57
2019-03-20T13:22:33.576Z,14.52
2019-03-20T13:24:26.303Z,14.53
2019-03-20T13:25:26.176Z,14.48
2019-03-20T13:27:18.863Z,14.48
2019-03-20T13:28:18.745Z,14.56
2019-03-20T13:30:19.878Z,14.60
2019-03-20T13:31:11.313Z,14.53
2019-03-20T13:33:04.002Z,14.52
2019-03-20T13:34:03.918Z,14.56
2019-03-20T13:35:56.583Z,14.53
2019-03-20T13:36:56.456Z,14.48
2019-03-20T13:38:49.129Z,14.64
2019-03-20T13:39:49.023Z,14.64
2019-03-20T13:41:41.723Z,14.64
2019-03-20T13:42:41.590Z,14.75
2019-03-20T13:44:34.263Z,14.75
2019-03-20T13:45:34.166Z,14.89
2019-03-20T13:47:26.868Z,15.02
2019-03-20T13:48:26.732Z,14.90
2019-03-20T13:50:19.410Z,14.82
2019-03-20T13:51:19.306Z,14.83
2019-03-20T13:53:12.011Z,14.67
2019-03-20T13:54:11.899Z,14.69
2019-03-20T13:56:04.563Z,14.63
2019-03-20T13:57:04.447Z,14.63
2019-03-20T13:58:57.140Z,14.60
2019-03-20T13:59:57.025Z,14.48
2019-03-20T14:01:49.691Z,14.19
2019-03-20T14:02:49.582Z,14.30
2019-03-20T14:04:42.273Z,14.33
2019-03-20T14:05:42.144Z,14.39
2019-03-20T14:07:35.067Z,14.15
2019-03-20T14:08:35.130Z,14.21
2019-03-20T14:10:27.647Z,14.21
2019-03-20T14:11:27.518Z,14.03
2019-03-20T14:13:20.194Z,14.12
2019-03-20T14:14:20.114Z,14.16
2019-03-20T14:16:12.966Z,14.31
2019-03-20T14:17:12.846Z,14.11
2019-03-20T14:19:06.330Z,13.94
2019-03-20T14:20:06.178Z,14.16
2019-03-20T14:21:59.283Z,14.05
2019-03-20T14:22:59.410Z,14.03
2019-03-20T14:24:51.831Z,13.93
2019-03-20T14:25:51.766Z,13.94
2019-03-20T14:27:44.417Z,13.76
2019-03-20T14:28:44.293Z,13.90
2019-03-20T14:30:36.967Z,13.97
2019-03-20T14:31:36.858Z,13.86
2019-03-20T14:33:29.552Z,13.73
2019-03-20T14:34:29.425Z,13.65
2019-03-20T14:36:22.089Z,13.63
2019-03-20T14:37:21.979Z,13.62
2019-03-20T14:39:14.666Z,13.58
2019-03-20T14:40:14.548Z,13.47
2019-03-20T14:42:07.214Z,13.51
2019-03-20T14:43:07.166Z,13.60
2019-03-20T14:44:59.805Z,13.48
2019-03-20T14:45:59.677Z,13.55
2019-03-20T14:47:52.351Z,13.53
2019-03-20T14:48:52.262Z,13.45
2019-03-20T14:50:44.947Z,13.40
2019-03-20T14:51:44.812Z,13.51
2019-03-20T14:53:37.478Z,13.40
2019-03-20T14:54:37.373Z,13.25
2019-03-20T14:56:30.067Z,13.37
2019-03-20T14:57:29.937Z,13.44
2019-03-20T14:59:22.621Z,13.48
2019-03-20T15:00:22.512Z,13.51
2019-03-20T15:02:15.210Z,13.65
2019-03-20T15:03:15.078Z,13.58
2019-03-20T15:05:07.757Z,13.76
2019-03-20T15:06:07.641Z,13.94
2019-03-20T15:08:00.344Z,13.90
2019-03-20T15:09:00.215Z,13.97
2019-03-20T15:10:52.882Z,13.91
2019-03-20T15:11:52.775Z,13.88
2019-03-20T15:13:45.961Z,13.93
2019-03-20T15:14:45.842Z,13.87
2019-03-20T15:16:38.512Z,14.02
2019-03-20T15:17:38.416Z,13.99
2019-03-20T15:19:31.102Z,13.97
2019-03-20T15:20:31.021Z,14.08
2019-03-20T15:22:23.670Z,14.01
2019-03-20T15:23:23.549Z,13.91
2019-03-20T15:25:16.252Z,13.84
2019-03-20T15:26:16.119Z,13.87
2019-03-20T15:28:08.801Z,13.93
2019-03-20T15:29:08.688Z,13.94
2019-03-20T15:31:01.385Z,13.93
2019-03-20T15:32:01.263Z,13.95
2019-03-20T15:33:53.930Z,13.94
2019-03-20T15:34:53.825Z,13.99
2019-03-20T15:36:46.508Z,13.72
2019-03-20T15:37:46.385Z,13.79
2019-03-20T15:39:39.052Z,13.78
2019-03-20T15:40:38.948Z,13.88
2019-03-20T15:42:31.633Z,13.83
2019-03-20T15:43:31.509Z,13.87
2019-03-20T15:45:24.179Z,13.86
2019-03-20T15:46:24.072Z,13.99
2019-03-20T15:48:16.765Z,13.91
2019-03-20T15:49:16.633Z,13.90
2019-03-20T15:51:09.311Z,13.83
2019-03-20T15:52:09.195Z,13.76
2019-03-20T15:54:01.885Z,13.79
2019-03-20T15:55:01.782Z,13.81
2019-03-20T15:56:56.106Z,13.78
2019-03-20T15:57:54.319Z,13.83
2019-03-20T15:59:47.016Z,13.93
2019-03-20T16:00:46.884Z,13.94
2019-03-20T16:02:39.557Z,13.94
2019-03-20T16:03:39.449Z,13.91
2019-03-20T16:05:32.138Z,13.87
2019-03-20T16:06:32.008Z,13.88
2019-03-20T16:08:24.680Z,13.72
2019-03-20T16:09:24.576Z,13.75
2019-03-20T16:11:17.274Z,13.78
2019-03-20T16:12:17.147Z,13.81
2019-03-20T16:14:09.819Z,13.83
2019-03-20T16:15:09.710Z,13.86
2019-03-20T16:17:02.406Z,13.68
2019-03-20T16:18:02.286Z,13.68
2019-03-20T16:19:54.953Z,13.63
2019-03-20T16:20:54.837Z,13.68
2019-03-20T16:22:47.524Z,13.68
2019-03-20T16:23:47.397Z,13.76
2019-03-20T16:25:40.065Z,13.81
2019-03-20T16:26:39.961Z,13.76
2019-03-20T16:28:32.641Z,13.76
2019-03-20T16:29:32.553Z,13.78
2019-03-20T16:31:25.203Z,13.78
2019-03-20T16:32:25.082Z,13.69
2019-03-20T16:34:17.776Z,13.72
2019-03-20T16:35:17.648Z,13.76
2019-03-20T16:37:10.313Z,13.63
2019-03-20T16:38:10.208Z,13.62
2019-03-20T16:40:02.893Z,13.62
2019-03-20T16:41:02.779Z,13.68
2019-03-20T16:42:55.444Z,13.60
2019-03-20T16:43:55.337Z,13.58
2019-03-20T16:45:48.027Z,13.58
2019-03-20T16:46:47.897Z,13.58
2019-03-20T16:48:40.570Z,13.48
2019-03-20T16:49:40.474Z,13.45
2019-03-20T16:51:33.149Z,13.53
2019-03-20T16:52:33.025Z,13.55
2019-03-20T16:54:25.699Z,13.45
2019-03-20T16:55:25.588Z,13.45
2019-03-20T16:57:18.278Z,13.39
2019-03-20T16:58:18.147Z,13.40
2019-03-20T17:00:10.826Z,13.39
2019-03-20T17:01:10.703Z,13.35
2019-03-20T17:03:03.389Z,13.37
2019-03-20T17:04:03.266Z,13.44
2019-03-20T17:05:55.936Z,13.36
2019-03-20T17:06:55.826Z,13.42
2019-03-20T17:08:48.518Z,13.39
2019-03-20T17:09:48.390Z,13.44
2019-03-20T17:11:41.063Z,13.40
2019-03-20T17:12:40.945Z,13.29
2019-03-20T17:14:33.633Z,13.29
2019-03-20T17:15:33.508Z,13.28
2019-03-20T17:17:26.175Z,13.29
2019-03-20T17:18:26.066Z,13.17
2019-03-20T17:20:18.745Z,13.29
2019-03-20T17:21:18.638Z,13.24
2019-03-20T17:23:11.302Z,13.19
2019-03-20T17:24:11.188Z,13.14
2019-03-20T17:26:03.872Z,13.11
2019-03-20T17:27:03.799Z,13.14
2019-03-20T17:28:56.419Z,13.07
2019-03-20T17:29:56.297Z,13.09
2019-03-20T17:31:48.983Z,13.01
2019-03-20T17:32:48.854Z,13.01
2019-03-20T17:34:41.529Z,12.91
2019-03-20T17:35:41.415Z,12.91
2019-03-20T17:37:34.625Z,12.91
2019-03-20T17:38:34.487Z,12.95
2019-03-20T17:40:27.149Z,12.94
2019-03-20T17:41:36.290Z,12.96
2019-03-20T17:43:19.721Z,12.92
2019-03-20T17:44:19.609Z,12.92
2019-03-20T17:46:12.291Z,12.86
2019-03-20T17:47:12.162Z,13.01
2019-03-20T17:49:04.829Z,12.83
2019-03-20T17:50:04.719Z,12.81
2019-03-20T17:51:57.399Z,12.84
2019-03-20T17:52:57.284Z,12.83
2019-03-20T17:54:49.957Z,12.81
2019-03-20T17:55:49.846Z,12.78
2019-03-20T17:57:42.544Z,12.76
2019-03-20T17:58:42.406Z,12.78
2019-03-20T18:00:35.105Z,12.76
2019-03-20T18:01:34.975Z,12.73
2019-03-20T18:03:27.721Z,12.70
2019-03-20T18:04:27.578Z,12.61
2019-03-20T18:06:20.300Z,12.63
2019-03-20T18:07:20.135Z,12.71
2019-03-20T18:09:12.837Z,12.58
2019-03-20T18:10:12.703Z,12.65
2019-03-20T18:12:05.379Z,12.69
2019-03-20T18:13:05.274Z,12.65
2019-03-20T18:14:57.954Z,12.62
2019-03-20T18:15:57.829Z,12.61
2019-03-20T18:17:50.496Z,12.61
2019-03-20T18:18:50.402Z,12.59
2019-03-20T18:20:43.066Z,12.62
2019-03-20T18:21:42.934Z,12.69
2019-03-20T18:23:35.610Z,12.63
2019-03-20T18:24:35.500Z,12.70
2019-03-20T18:26:28.185Z,12.65
2019-03-20T18:27:28.063Z,12.62
2019-03-20T18:29:20.768Z,12.63
2019-03-20T18:30:20.622Z,12.70
2019-03-20T18:32:13.310Z,12.65
2019-03-20T18:33:13.190Z,12.74
2019-03-20T18:35:05.849Z,12.65
2019-03-20T18:36:05.738Z,12.62
2019-03-20T18:37:58.427Z,12.65
2019-03-20T18:38:58.296Z,12.62
2019-03-20T18:40:50.976Z,12.66
2019-03-20T18:41:57.749Z,12.62
2019-03-20T18:43:43.559Z,12.62
2019-03-20T18:44:43.426Z,12.62
2019-03-20T18:46:36.097Z,12.63
2019-03-20T18:47:35.982Z,12.45
2019-03-20T18:49:28.685Z,12.55
2019-03-20T18:50:28.558Z,12.51
2019-03-20T18:52:21.225Z,12.52
2019-03-20T18:53:21.113Z,12.47
2019-03-20T18:55:13.795Z,12.44
2019-03-20T18:56:13.669Z,12.47
2019-03-20T18:58:06.336Z,12.44
2019-03-20T18:59:06.230Z,12.41
2019-03-20T19:00:58.915Z,12.38
2019-03-20T19:01:58.811Z,12.36
2019-03-20T19:03:51.944Z,12.31
2019-03-20T19:04:51.843Z,12.29
2019-03-20T19:06:44.523Z,12.29
2019-03-20T19:07:44.393Z,12.31
2019-03-20T19:09:37.058Z,12.36
2019-03-20T19:10:36.948Z,12.33
2019-03-20T19:12:29.640Z,12.33
2019-03-20T19:13:29.510Z,12.19
2019-03-20T19:15:22.185Z,12.29
2019-03-20T19:16:22.070Z,12.25
2019-03-20T19:18:14.753Z,12.36
2019-03-20T19:19:14.620Z,12.28
2019-03-20T19:21:07.294Z,12.28
2019-03-20T19:22:07.183Z,12.38
2019-03-20T19:23:59.858Z,12.38
2019-03-20T19:24:59.733Z,12.43
2019-03-20T19:26:52.409Z,12.43
2019-03-20T19:27:52.328Z,12.41
2019-03-20T19:29:44.971Z,12.47
2019-03-20T19:30:44.851Z,12.45
2019-03-20T19:32:38.013Z,12.62
2019-03-20T19:33:37.910Z,12.56
2019-03-20T19:35:30.596Z,12.48
2019-03-20T19:36:30.461Z,12.51
2019-03-20T19:38:23.125Z,12.55
2019-03-20T19:39:23.011Z,12.58
2019-03-20T19:41:15.700Z,12.56
2019-03-20T19:42:19.967Z,12.62
2019-03-20T19:44:08.246Z,12.66
2019-03-20T19:45:08.132Z,12.58
2019-03-20T19:47:00.816Z,12.62
2019-03-20T19:48:00.693Z,12.69
2019-03-20T19:49:53.359Z,12.58
2019-03-20T19:50:53.250Z,12.63
2019-03-20T19:52:45.942Z,12.62
2019-03-20T19:53:45.803Z,12.58
2019-03-20T19:55:38.475Z,12.69
2019-03-20T19:56:38.359Z,12.61
2019-03-20T19:58:31.050Z,12.63
2019-03-20T19:59:30.915Z,12.66
2019-03-20T20:01:23.587Z,12.63
2019-03-20T20:02:23.471Z,12.61
2019-03-20T20:04:16.157Z,12.65
2019-03-20T20:05:16.439Z,12.65
2019-03-20T20:07:08.703Z,12.73
2019-03-20T20:08:08.592Z,12.73
2019-03-20T20:10:01.277Z,12.59
2019-03-20T20:11:01.207Z,12.66
2019-03-20T20:12:53.814Z,12.70
2019-03-20T20:13:53.705Z,12.62
2019-03-20T20:15:46.390Z,12.63
2019-03-20T20:16:46.264Z,12.61
2019-03-20T20:18:38.938Z,12.65
2019-03-20T20:19:38.831Z,12.71
2019-03-20T20:21:31.516Z,12.65
2019-03-20T20:22:31.524Z,12.71
2019-03-20T20:24:24.162Z,12.66
2019-03-20T20:25:23.951Z,12.63
2019-03-20T20:27:16.638Z,12.59
2019-03-20T20:28:16.513Z,12.70
2019-03-20T20:30:09.181Z,12.61
2019-03-20T20:31:09.071Z,12.65
2019-03-20T20:33:01.756Z,12.69
2019-03-20T20:34:01.631Z,12.66
2019-03-20T20:35:54.309Z,12.66
2019-03-20T20:36:54.185Z,12.63
2019-03-20T20:38:46.870Z,12.62
2019-03-20T20:39:46.742Z,12.59
2019-03-20T20:41:39.416Z,12.63
2019-03-20T20:42:43.271Z,12.61
2019-03-20T20:44:31.989Z,12.59
2019-03-20T20:45:31.866Z,12.65
2019-03-20T20:47:24.567Z,12.58
2019-03-20T20:48:24.440Z,12.56
2019-03-20T20:50:17.141Z,12.62
2019-03-20T20:51:17.002Z,12.62
2019-03-20T20:53:09.675Z,12.63
2019-03-20T20:54:09.563Z,12.69
2019-03-20T20:56:02.243Z,12.59
2019-03-20T20:57:02.124Z,12.63
2019-03-20T20:58:54.790Z,12.62
2019-03-20T20:59:54.686Z,12.61
2019-03-20T21:01:47.373Z,12.56
2019-03-20T21:02:47.246Z,12.59
2019-03-20T21:04:39.938Z,12.52
2019-03-20T21:05:39.818Z,12.59
2019-03-20T21:07:32.557Z,12.47
2019-03-20T21:08:32.382Z,12.59
2019-03-20T21:10:25.067Z,12.62
2019-03-20T21:11:24.952Z,12.53
2019-03-20T21:13:17.656Z,12.61
2019-03-20T21:14:17.528Z,12.61
2019-03-20T21:16:10.200Z,12.58
2019-03-20T21:17:10.087Z,12.48
2019-03-20T21:19:02.769Z,12.44
2019-03-20T21:20:02.645Z,12.47
2019-03-20T21:21:55.316Z,12.45
2019-03-20T21:22:55.213Z,12.43
2019-03-20T21:24:47.894Z,12.43
2019-03-20T21:25:47.764Z,12.43
2019-03-20T21:27:40.427Z,12.45
2019-03-20T21:28:40.316Z,12.45
2019-03-20T21:30:33.004Z,12.47
2019-03-20T21:31:32.865Z,12.45
2019-03-20T21:33:25.533Z,12.47
2019-03-20T21:34:25.425Z,12.51
2019-03-20T21:36:18.109Z,12.59
2019-03-20T21:37:17.983Z,12.55
2019-03-20T21:39:10.709Z,12.51
2019-03-20T21:40:10.599Z,12.62
2019-03-20T21:42:03.394Z,12.47
2019-03-20T21:43:07.213Z,12.53
2019-03-20T21:44:55.875Z,12.59
2019-03-20T21:45:55.771Z,12.58
2019-03-20T21:47:48.468Z,12.55
2019-03-20T21:48:48.326Z,12.51
2019-03-20T21:50:41.002Z,12.53
2019-03-20T21:51:40.893Z,12.59
2019-03-20T21:53:33.567Z,12.51
2019-03-20T21:54:33.448Z,12.58
2019-03-20T21:56:26.112Z,12.45
2019-03-20T21:57:25.991Z,12.51
2019-03-20T21:59:18.696Z,12.45
2019-03-20T22:00:18.563Z,12.52
2019-03-20T22:02:11.238Z,12.56
2019-03-20T22:03:11.133Z,12.53
2019-03-20T22:05:03.831Z,12.48
2019-03-20T22:06:03.697Z,12.51
2019-03-20T22:07:56.371Z,12.47
2019-03-20T22:08:56.266Z,12.52
2019-03-20T22:10:48.951Z,12.45
2019-03-20T22:11:48.818Z,12.48
2019-03-20T22:13:41.486Z,12.52
2019-03-20T22:14:41.384Z,12.41
2019-03-20T22:16:34.055Z,12.34
2019-03-20T22:17:33.930Z,12.33
2019-03-20T22:19:26.605Z,12.33
2019-03-20T22:20:26.492Z,12.37
2019-03-20T22:22:19.209Z,12.38
2019-03-20T22:23:19.056Z,12.31
2019-03-20T22:25:11.723Z,12.29
2019-03-20T22:26:11.619Z,12.29
2019-03-20T22:28:04.292Z,12.26
2019-03-20T22:29:04.170Z,12.28
2019-03-20T22:30:56.834Z,12.29
2019-03-20T22:31:56.725Z,12.31
2019-03-20T22:33:49.413Z,12.23
2019-03-20T22:34:49.293Z,12.28
2019-03-20T22:36:41.960Z,12.28
2019-03-20T22:37:41.847Z,12.34
2019-03-20T22:39:34.540Z,12.31
2019-03-20T22:40:34.406Z,12.41
2019-03-20T22:42:27.076Z,12.48
2019-03-20T22:43:30.500Z,12.38
2019-03-20T22:45:19.702Z,12.43
2019-03-20T22:46:19.531Z,12.47
2019-03-20T22:48:12.202Z,12.47
2019-03-20T22:49:12.091Z,12.43
2019-03-20T22:51:04.788Z,12.53
2019-03-20T22:52:04.646Z,12.44
2019-03-20T22:53:57.318Z,12.45
2019-03-20T22:54:57.198Z,12.38
2019-03-20T22:56:49.915Z,12.45
2019-03-20T22:57:49.754Z,12.47
2019-03-20T22:59:42.422Z,12.43
